UPSVAC Airport Information Service

Los Angeles International Airport

ICAO: KLAX Country: United States
Latitude: 33.9425 Longitude: -118.407
Latest Arrival : SOX98 (A) (VHHH-KLAX) Latest Departure : UPS2354 (KLAX-KSDF)


WX CaptureLIVE
Data provided by noaa.gov | Fetched at 22:19:33

METAR : KLAX 112153Z 26012KT 10SM SCT014 19/13 A2991 RMK AO2 SLP128 T01890133

TAF : KLAX 112057Z 1121/1224 26010KT P6SM SCT016 FM112200 26012KT P6SM FEW020 FM120400 26006KT P6SM BKN010 FM120900 VRB03KT P6SM OVC009 FM121500 VRB03KT P6SM OVC011 FM122000 26012KT P6SM SCT014


Runway Data for KLAX
Data provided by openaviationdata.com

Runway ID Mag Var Hdg Length Elevation Surface ILS Freq ILS Id ILS Slope
06L 13 69° 8916 ft 126 ft Concrete 108.5 IUWU 3
06R 13 69° 10274 ft 126 ft Concrete 111.7 IGPE 3
07L 13 69° 12078 ft 126 ft Concrete 111.1 IIAS 3
07R 13 69° 11084 ft 126 ft Concrete 109.9 IMKZ 3
24L 13 249° 10274 ft 126 ft Concrete 111.7 IHQB 3
24R 13 249° 8916 ft 126 ft Concrete 108.5 IOSS 3
25L 13 249° 11084 ft 126 ft Concrete 109.9 ILAX 3
25R 13 249° 12078 ft 126 ft Concrete 111.1 ICFN 3

Los Angeles International Airport, United States
Use only for reference purposes



Not for navigational purposes.